createdAt,value
2022-08-07T00:00:40.110Z,102824.75
2022-08-07T00:03:08.607Z,102838.53
2022-08-07T00:05:37.142Z,102841.66
2022-08-07T00:08:05.504Z,102824.84
2022-08-07T00:10:35.500Z,102832.94
2022-08-07T00:13:17.454Z,102821.81
2022-08-07T00:15:53.423Z,102833.63
2022-08-07T00:18:24.479Z,102826.91
2022-08-07T00:20:52.897Z,102832.09
2022-08-07T00:23:21.127Z,102832.88
2022-08-07T00:25:52.125Z,102835.41
2022-08-07T00:28:33.309Z,102835.88
2022-08-07T00:31:06.187Z,102832.69
2022-08-07T00:33:34.147Z,102824.47
2022-08-07T00:36:01.672Z,102826.34
2022-08-07T00:38:31.186Z,102824.88
2022-08-07T00:40:59.194Z,102820.75
2022-08-07T00:44:00.667Z,102820.03
2022-08-07T00:46:14.699Z,102822.47
2022-08-07T00:48:42.269Z,102826.63
2022-08-07T00:51:10.537Z,102822.91
2022-08-07T00:53:39.387Z,102822.78
2022-08-07T00:56:18.103Z,102814.50
2022-08-07T00:58:47.469Z,102815.84
2022-08-07T01:01:20.492Z,102820.34
2022-08-07T01:03:56.180Z,102824.50
2022-08-07T01:06:27.144Z,102818.28
2022-08-07T01:08:55.633Z,102812.91
2022-08-07T01:12:05.048Z,102804.34
2022-08-07T01:14:10.431Z,102811.47
2022-08-07T01:16:43.211Z,102812.47
2022-08-07T01:19:19.131Z,102811.75
2022-08-07T01:21:53.454Z,102804.94
2022-08-07T01:24:27.736Z,102809.44
2022-08-07T01:26:59.084Z,102805.81
2022-08-07T01:29:31.509Z,102807.00
2022-08-07T01:32:05.228Z,102802.19
2022-08-07T01:34:33.330Z,102805.03
2022-08-07T01:37:09.755Z,102800.91
2022-08-07T01:39:46.727Z,102800.50
2022-08-07T01:42:38.517Z,102799.34
2022-08-07T01:45:22.913Z,102793.53
2022-08-07T01:48:18.623Z,102793.13
2022-08-07T01:50:49.819Z,102799.78
2022-08-07T01:53:21.937Z,102794.63
2022-08-07T01:56:13.210Z,102781.81
2022-08-07T01:58:46.512Z,102787.31
2022-08-07T02:01:25.512Z,102791.00
2022-08-07T02:04:11.567Z,102794.00
2022-08-07T02:06:43.219Z,102782.28
2022-08-07T02:09:33.769Z,102787.06
2022-08-07T02:12:18.220Z,102783.78
2022-08-07T02:14:54.010Z,102785.47
2022-08-07T02:17:39.558Z,102780.69
2022-08-07T02:20:17.513Z,102786.81
2022-08-07T02:22:55.045Z,102789.56
2022-08-07T02:26:10.906Z,102794.88
2022-08-07T02:28:24.388Z,102789.34
2022-08-07T02:30:53.792Z,102778.91
2022-08-07T02:33:23.448Z,102788.06
2022-08-07T02:36:29.578Z,102789.72
2022-08-07T02:38:56.762Z,102779.31
2022-08-07T02:41:37.101Z,102789.22
2022-08-07T02:44:07.239Z,102781.38
2022-08-07T02:46:36.953Z,102779.63
2022-08-07T02:49:56.108Z,102776.28
2022-08-07T02:52:04.957Z,102780.63
2022-08-07T02:54:35.513Z,102780.50
2022-08-07T02:57:06.612Z,102775.28
2022-08-07T02:59:34.755Z,102776.25
2022-08-07T03:02:07.379Z,102767.31
2022-08-07T03:04:37.110Z,102781.00
2022-08-07T03:07:10.474Z,102778.91
2022-08-07T03:09:44.397Z,102770.41
2022-08-07T03:12:22.663Z,102766.88
2022-08-07T03:15:07.733Z,102767.88
2022-08-07T03:17:52.855Z,102770.69
2022-08-07T03:20:22.405Z,102773.44
2022-08-07T03:22:50.917Z,102772.69
2022-08-07T03:25:21.128Z,102778.03
2022-08-07T03:28:08.816Z,102771.16
2022-08-07T03:30:38.483Z,102769.50
2022-08-07T03:33:08.657Z,102766.84
2022-08-07T03:35:50.098Z,102763.47
2022-08-07T03:38:20.906Z,102773.47
2022-08-07T03:40:57.265Z,102764.78
2022-08-07T03:43:32.211Z,102753.59
2022-08-07T03:46:03.411Z,102754.63
2022-08-07T03:48:32.571Z,102752.00
2022-08-07T03:51:00.768Z,102757.66
2022-08-07T03:54:33.014Z,102756.06
2022-08-07T03:56:33.276Z,102763.13
2022-08-07T03:59:10.157Z,102764.91
2022-08-07T04:01:45.738Z,102761.50
2022-08-07T04:04:17.757Z,102760.66
2022-08-07T04:06:50.808Z,102760.06
2022-08-07T04:09:23.319Z,102759.56
2022-08-07T04:12:24.147Z,102753.47
2022-08-07T04:14:46.212Z,102758.16
2022-08-07T04:17:21.552Z,102759.25
2022-08-07T04:19:54.860Z,102749.78
2022-08-07T04:22:27.478Z,102750.59
2022-08-07T04:24:58.357Z,102748.94
2022-08-07T04:27:26.515Z,102750.69
2022-08-07T04:30:02.661Z,102740.97
2022-08-07T04:32:58.242Z,102756.25
2022-08-07T04:35:28.588Z,102757.03
2022-08-07T04:38:07.098Z,102758.13
2022-08-07T04:40:43.931Z,102756.00
2022-08-07T04:44:10.408Z,102749.66
2022-08-07T04:46:29.360Z,102753.88
2022-08-07T04:49:24.566Z,102763.41
2022-08-07T04:52:00.768Z,102766.59
2022-08-07T04:54:32.314Z,102761.84
2022-08-07T04:58:14.423Z,102768.91
2022-08-07T05:00:10.746Z,102761.78
2022-08-07T05:02:48.641Z,102765.16
2022-08-07T05:05:52.834Z,102766.84
2022-08-07T05:08:18.033Z,102766.50
2022-08-07T05:11:11.093Z,102756.72
2022-08-07T05:14:53.261Z,102765.53
2022-08-07T05:16:44.088Z,102768.06
2022-08-07T05:19:19.567Z,102773.00
2022-08-07T05:22:04.734Z,102769.88
2022-08-07T05:24:39.573Z,102774.78
2022-08-07T05:28:02.058Z,102767.84
2022-08-07T05:29:59.748Z,102768.47
2022-08-07T05:32:27.420Z,102781.63
2022-08-07T05:34:56.804Z,102783.38
2022-08-07T05:37:25.767Z,102784.72
2022-08-07T05:40:13.449Z,102782.59
2022-08-07T05:42:55.822Z,102780.03
2022-08-07T05:45:47.087Z,102783.72
2022-08-07T05:48:14.297Z,102778.09
2022-08-07T05:50:47.827Z,102774.41
2022-08-07T05:54:12.817Z,102774.56
2022-08-07T05:56:08.664Z,102774.56
2022-08-07T05:58:52.446Z,102782.78
2022-08-07T06:01:24.874Z,102777.75
2022-08-07T06:03:59.009Z,102792.44
2022-08-07T06:06:34.740Z,102793.09
2022-08-07T06:09:05.377Z,102794.28
2022-08-07T06:11:37.635Z,102790.03
2022-08-07T06:14:13.336Z,102799.41
2022-08-07T06:16:56.147Z,102795.13
2022-08-07T06:19:52.299Z,102804.63
2022-08-07T06:22:27.393Z,102802.97
2022-08-07T06:25:10.636Z,102812.19
2022-08-07T06:27:44.215Z,102813.53
2022-08-07T06:30:35.346Z,102808.56
2022-08-07T06:33:15.650Z,102802.69
2022-08-07T06:35:47.917Z,102805.84
2022-08-07T06:38:32.600Z,102808.75
2022-08-07T06:41:06.891Z,102806.38
2022-08-07T06:43:39.596Z,102802.84
2022-08-07T06:46:12.656Z,102799.81
2022-08-07T06:48:42.031Z,102793.75
2022-08-07T06:51:31.114Z,102801.63
2022-08-07T06:55:29.149Z,102805.06
2022-08-07T06:56:55.511Z,102806.44
2022-08-07T07:00:14.842Z,102807.63
2022-08-07T07:02:48.838Z,102804.16
2022-08-07T07:05:12.953Z,102797.44
2022-08-07T07:07:59.472Z,102784.59
2022-08-07T07:10:36.204Z,102789.59
2022-08-07T07:13:13.226Z,102795.44
2022-08-07T07:15:44.671Z,102781.78
2022-08-07T07:18:47.382Z,102794.84
2022-08-07T07:21:19.511Z,102789.06
2022-08-07T07:24:09.033Z,102794.56
2022-08-07T07:26:39.683Z,102782.69
2022-08-07T07:29:55.815Z,102785.06
2022-08-07T07:32:03.535Z,102784.88
2022-08-07T07:34:33.248Z,102779.13
2022-08-07T07:37:05.511Z,102776.03
2022-08-07T07:39:54.845Z,102776.50
2022-08-07T07:42:33.079Z,102785.44
2022-08-07T07:45:02.577Z,102786.75
2022-08-07T07:47:42.924Z,102786.66
2022-08-07T07:50:35.167Z,102782.25
2022-08-07T07:53:05.910Z,102783.94
2022-08-07T07:55:54.728Z,102780.56
2022-08-07T07:58:29.552Z,102789.78
2022-08-07T08:00:58.380Z,102774.09
2022-08-07T08:04:10.100Z,102792.47
2022-08-07T08:06:17.491Z,102786.75
2022-08-07T08:08:46.310Z,102786.41
2022-08-07T08:11:17.907Z,102788.78
2022-08-07T08:14:04.398Z,102786.50
2022-08-07T08:16:35.523Z,102787.66
2022-08-07T08:19:17.934Z,102787.63
2022-08-07T08:22:11.426Z,102779.22
2022-08-07T08:25:18.220Z,102777.94
2022-08-07T08:27:57.082Z,102782.88
2022-08-07T08:30:34.878Z,102778.81
2022-08-07T08:33:10.622Z,102785.72
2022-08-07T08:35:49.780Z,102778.25
2022-08-07T08:38:20.550Z,102766.31
2022-08-07T08:40:57.088Z,102767.50
2022-08-07T08:43:42.260Z,102762.16
2022-08-07T08:46:25.295Z,102763.09
2022-08-07T08:48:59.713Z,102776.31
2022-08-07T08:51:49.531Z,102767.53
2022-08-07T08:54:24.580Z,102778.91
2022-08-07T08:56:54.144Z,102771.09
2022-08-07T08:59:29.486Z,102774.84
2022-08-07T09:02:08.766Z,102770.81
2022-08-07T09:04:44.820Z,102769.47
2022-08-07T09:07:23.072Z,102771.03
2022-08-07T09:09:58.836Z,102766.78
2022-08-07T09:12:53.061Z,102769.47
2022-08-07T09:16:21.490Z,102768.16
2022-08-07T09:19:03.482Z,102761.88
2022-08-07T09:22:09.747Z,102760.97
2022-08-07T09:24:59.058Z,102761.88
2022-08-07T09:28:00.394Z,102757.94
2022-08-07T09:30:48.853Z,102756.25
2022-08-07T09:33:52.350Z,102761.72
2022-08-07T09:36:31.174Z,102760.69
2022-08-07T09:39:52.596Z,102749.31
2022-08-07T09:42:11.912Z,102754.88
2022-08-07T09:47:55.116Z,102754.88
2022-08-07T09:48:00.233Z,102751.13
2022-08-07T09:50:40.017Z,102740.72
2022-08-07T09:53:12.655Z,102738.78
2022-08-07T09:56:03.106Z,102747.53
2022-08-07T09:58:55.428Z,102741.19
2022-08-07T10:01:50.488Z,102727.13
2022-08-07T10:04:33.083Z,102730.78
2022-08-07T10:07:25.545Z,102726.28
2022-08-07T10:10:03.916Z,102730.03
2022-08-07T10:12:53.231Z,102723.03
2022-08-07T10:15:44.017Z,102713.44
2022-08-07T10:18:35.394Z,102707.22
2022-08-07T10:22:12.418Z,102712.94
2022-08-07T10:24:25.864Z,102706.94
2022-08-07T10:27:19.585Z,102713.19
2022-08-07T10:30:04.921Z,102700.63
2022-08-07T10:32:53.261Z,102700.47
2022-08-07T10:35:55.229Z,102705.03
2022-08-07T10:38:36.169Z,102708.34
2022-08-07T10:41:51.609Z,102700.38
2022-08-07T10:44:16.863Z,102703.31
2022-08-07T10:47:14.141Z,102708.56
2022-08-07T10:49:50.752Z,102702.38
2022-08-07T10:52:31.837Z,102699.47
2022-08-07T10:55:32.500Z,102695.97
2022-08-07T10:58:04.390Z,102695.06
2022-08-07T11:00:50.591Z,102692.09
2022-08-07T11:03:37.861Z,102691.78
2022-08-07T11:06:26.708Z,102689.78
2022-08-07T11:09:00.266Z,102691.16
2022-08-07T11:11:35.907Z,102691.41
2022-08-07T11:14:44.339Z,102675.38
2022-08-07T11:17:01.993Z,102687.03
2022-08-07T11:19:38.094Z,102689.47
2022-08-07T11:22:19.181Z,102681.91
2022-08-07T11:25:06.646Z,102673.50
2022-08-07T11:28:02.366Z,102674.38
2022-08-07T11:30:42.291Z,102673.19
2022-08-07T11:33:16.877Z,102668.53
2022-08-07T11:35:59.186Z,102659.34
2022-08-07T11:38:30.663Z,102656.91
2022-08-07T11:41:04.036Z,102644.34
2022-08-07T11:43:54.705Z,102647.75
2022-08-07T11:46:36.630Z,102646.97
2022-08-07T11:49:50.390Z,102660.38
2022-08-07T11:52:39.188Z,102652.34
2022-08-07T11:55:18.965Z,102651.78
2022-08-07T11:58:16.454Z,102660.81
2022-08-07T12:01:02.279Z,102651.50
2022-08-07T12:04:02.406Z,102621.44
2022-08-07T12:06:50.760Z,102654.41
2022-08-07T12:09:28.678Z,102650.13
2022-08-07T12:12:09.484Z,102654.94
2022-08-07T12:14:56.471Z,102645.66
2022-08-07T12:17:37.420Z,102643.56
2022-08-07T12:20:18.465Z,102638.19
2022-08-07T12:23:10.738Z,102641.78
2022-08-07T12:26:21.524Z,102634.75
2022-08-07T12:28:49.747Z,102642.00
2022-08-07T12:31:53.259Z,102640.50
2022-08-07T12:34:18.487Z,102638.81
2022-08-07T12:36:50.027Z,102642.84
2022-08-07T12:39:44.108Z,102645.16
2022-08-07T12:42:13.194Z,102647.69
2022-08-07T12:44:45.239Z,102644.75
2022-08-07T12:47:30.740Z,102648.34
2022-08-07T12:50:34.490Z,102644.63
2022-08-07T12:53:05.317Z,102640.38
2022-08-07T12:56:03.326Z,102640.31
2022-08-07T12:58:39.454Z,102633.38
2022-08-07T13:01:16.996Z,102630.78
2022-08-07T13:04:05.328Z,102633.34
2022-08-07T13:06:54.220Z,102638.97
2022-08-07T13:10:18.752Z,102639.63
2022-08-07T13:12:37.801Z,102639.72
2022-08-07T13:15:23.509Z,102638.31
2022-08-07T13:18:03.588Z,102634.19
2022-08-07T13:20:40.220Z,102632.47
2022-08-07T13:24:00.737Z,102637.78
2022-08-07T13:26:05.543Z,102632.75
2022-08-07T13:28:39.471Z,102639.59
2022-08-07T13:31:13.122Z,102636.38
2022-08-07T13:34:32.696Z,102628.06
2022-08-07T13:36:42.265Z,102625.63
2022-08-07T13:39:48.932Z,102627.22
2022-08-07T13:42:10.170Z,102619.50
2022-08-07T13:44:39.745Z,102609.81
2022-08-07T13:47:15.770Z,102608.47
2022-08-07T13:50:34.994Z,102609.41
2022-08-07T13:52:47.040Z,102606.22
2022-08-07T13:55:19.538Z,102607.00
2022-08-07T13:58:27.999Z,102592.91
2022-08-07T14:01:09.113Z,102609.16
2022-08-07T14:04:07.887Z,102607.63
2022-08-07T14:06:33.028Z,102607.84
2022-08-07T14:09:04.479Z,102600.63
2022-08-07T14:11:53.733Z,102601.72
2022-08-07T14:14:28.471Z,102600.16
2022-08-07T14:17:00.097Z,102602.63
2022-08-07T14:20:39.756Z,102601.09
2022-08-07T14:22:41.589Z,102609.53
2022-08-07T14:25:13.550Z,102610.38
2022-08-07T14:28:11.544Z,102604.31
2022-08-07T14:30:34.048Z,102593.69
2022-08-07T14:33:04.466Z,102592.72
2022-08-07T14:35:45.514Z,102591.59
2022-08-07T14:38:26.523Z,102603.41
2022-08-07T14:41:03.863Z,102604.22
2022-08-07T14:43:58.072Z,102594.41
2022-08-07T14:46:30.709Z,102604.47
2022-08-07T14:57:55.151Z,102588.88
2022-08-07T15:03:16.710Z,102591.91
2022-08-07T15:05:54.778Z,102582.84
2022-08-07T15:08:50.370Z,102583.22
2022-08-07T15:11:53.618Z,102576.63
2022-08-07T15:14:19.614Z,102590.03
2022-08-07T15:16:54.927Z,102579.56
2022-08-07T15:20:32.430Z,102578.00
2022-08-07T15:22:33.541Z,102574.84
2022-08-07T15:25:17.063Z,102573.03
2022-08-07T15:28:32.399Z,102573.47
2022-08-07T15:37:03.852Z,102574.91
2022-08-07T15:39:16.825Z,102579.31
2022-08-07T15:42:46.156Z,102579.91
2022-08-07T15:48:01.351Z,102575.38
2022-08-07T15:50:37.935Z,102572.53
2022-08-07T15:53:21.763Z,102562.44
2022-08-07T15:56:02.772Z,102569.38
2022-08-07T15:58:39.278Z,102567.03
2022-08-07T16:01:15.344Z,102564.28
2022-08-07T16:03:54.394Z,102557.78
2022-08-07T16:06:29.868Z,102559.78
2022-08-07T16:09:01.301Z,102556.13
2022-08-07T16:11:43.300Z,102559.38
2022-08-07T16:14:19.192Z,102559.94
2022-08-07T16:17:00.479Z,102562.00
2022-08-07T16:19:58.876Z,102548.28
2022-08-07T16:22:55.328Z,102556.31
2022-08-07T16:25:55.425Z,102556.97
2022-08-07T16:30:05.889Z,102540.03
2022-08-07T16:31:58.625Z,102551.72
2022-08-07T16:34:38.473Z,102540.22
2022-08-07T16:38:04.365Z,102548.00
2022-08-07T16:40:34.257Z,102536.91
2022-08-07T16:43:12.180Z,102546.63
2022-08-07T16:46:33.410Z,102543.28
2022-08-07T16:50:27.449Z,102544.69
2022-08-07T16:52:51.052Z,102548.63
2022-08-07T16:55:17.267Z,102551.66
2022-08-07T16:58:01.929Z,102541.66
2022-08-07T17:00:40.333Z,102548.03
2022-08-07T17:03:17.142Z,102545.47
2022-08-07T17:06:19.758Z,102544.81
2022-08-07T17:09:13.956Z,102545.78
2022-08-07T17:12:05.229Z,102541.78
2022-08-07T17:14:43.771Z,102540.72
2022-08-07T17:17:28.127Z,102537.63
2022-08-07T17:20:21.671Z,102536.94
2022-08-07T17:23:03.830Z,102542.50
2022-08-07T17:25:48.023Z,102539.81
2022-08-07T17:28:31.130Z,102532.38
2022-08-07T17:31:15.952Z,102534.72
2022-08-07T17:34:18.212Z,102537.78
2022-08-07T17:36:57.964Z,102546.25
2022-08-07T17:39:58.813Z,102535.47
2022-08-07T17:42:58.303Z,102537.06
2022-08-07T17:45:30.770Z,102536.69
2022-08-07T17:48:06.819Z,102536.31
2022-08-07T17:50:49.926Z,102531.28
2022-08-07T17:54:01.583Z,102539.63
2022-08-07T17:56:29.372Z,102522.72
2022-08-07T17:59:09.593Z,102527.09
2022-08-07T18:01:45.790Z,102525.88
2022-08-07T18:04:30.745Z,102517.78
2022-08-07T18:07:20.831Z,102522.41
2022-08-07T18:10:05.970Z,102527.47
2022-08-07T18:12:48.194Z,102531.03
2022-08-07T18:15:20.175Z,102540.81
2022-08-07T18:18:39.896Z,102533.47
2022-08-07T18:21:11.870Z,102535.69
2022-08-07T18:23:50.888Z,102536.22
2022-08-07T18:26:27.880Z,102532.28
2022-08-07T18:30:04.383Z,102537.16
2022-08-07T18:32:08.855Z,102537.94
2022-08-07T18:35:02.618Z,102536.66
2022-08-07T18:38:55.880Z,102544.72
2022-08-07T18:40:42.748Z,102545.66
2022-08-07T18:43:42.682Z,102544.72
2022-08-07T18:46:25.422Z,102549.53
2022-08-07T18:50:35.236Z,102548.81
2022-08-07T18:52:35.451Z,102563.13
2022-08-07T18:54:51.720Z,102556.09
2022-08-07T18:57:31.459Z,102564.25
2022-08-07T19:00:32.864Z,102561.06
2022-08-07T19:03:11.668Z,102569.91
2022-08-07T19:06:02.635Z,102570.88
2022-08-07T19:08:46.252Z,102576.28
2022-08-07T19:11:35.903Z,102573.69
2022-08-07T19:14:19.981Z,102561.13
2022-08-07T19:17:06.661Z,102583.91
2022-08-07T19:19:53.528Z,102591.47
2022-08-07T19:22:30.830Z,102577.69
2022-08-07T19:24:58.844Z,102584.34
2022-08-07T19:28:29.622Z,102591.41
2022-08-07T19:31:00.909Z,102589.94
2022-08-07T19:33:16.053Z,102609.31
2022-08-07T19:35:51.736Z,102611.78
2022-08-07T19:38:20.618Z,102611.66
2022-08-07T19:40:51.421Z,102616.38
2022-08-07T19:43:43.969Z,102617.31
2022-08-07T19:46:10.705Z,102615.47
2022-08-07T19:48:42.696Z,102615.03
2022-08-07T19:51:19.569Z,102614.16
2022-08-07T19:54:31.148Z,102604.53
2022-08-07T19:58:02.350Z,102616.94
2022-08-07T19:59:40.801Z,102621.78
2022-08-07T20:02:19.276Z,102619.25
2022-08-07T20:04:50.162Z,102619.84
2022-08-07T20:07:28.263Z,102622.94
2022-08-07T20:10:36.677Z,102627.41
2022-08-07T20:13:06.018Z,102620.91
2022-08-07T20:15:37.280Z,102625.59
2022-08-07T20:18:14.668Z,102628.28
2022-08-07T20:20:47.167Z,102626.53
2022-08-07T20:23:32.949Z,102620.91
2022-08-07T20:26:09.995Z,102620.22
2022-08-07T20:28:39.975Z,102620.69
2022-08-07T20:31:21.340Z,102620.13
2022-08-07T20:33:56.593Z,102616.41
2022-08-07T20:36:27.231Z,102607.78
2022-08-07T20:39:00.534Z,102627.19
2022-08-07T20:41:38.326Z,102630.44
2022-08-07T20:44:12.521Z,102617.88
2022-08-07T20:46:44.223Z,102623.63
2022-08-07T20:49:57.994Z,102623.22
2022-08-07T20:52:00.656Z,102628.19
2022-08-07T20:54:29.983Z,102632.16
2022-08-07T20:57:03.748Z,102627.28
2022-08-07T21:00:06.669Z,102636.38
2022-08-07T21:03:03.328Z,102631.91
2022-08-07T21:05:54.463Z,102621.41
2022-08-07T21:08:36.363Z,102625.38
2022-08-07T21:11:10.852Z,102617.88
2022-08-07T21:14:16.250Z,102627.31
2022-08-07T21:16:36.250Z,102625.25
2022-08-07T21:19:09.085Z,102622.91
2022-08-07T21:21:56.835Z,102621.56
2022-08-07T21:24:32.561Z,102621.72
2022-08-07T21:27:14.659Z,102621.03
2022-08-07T21:29:52.796Z,102628.28
2022-08-07T21:32:44.163Z,102620.53
2022-08-07T21:35:34.633Z,102622.56
2022-08-07T21:38:12.631Z,102624.31
2022-08-07T21:40:45.786Z,102623.19
2022-08-07T21:43:22.938Z,102619.72
2022-08-07T21:46:07.528Z,102615.84
2022-08-07T21:48:55.782Z,102620.59
2022-08-07T21:51:32.593Z,102622.56
2022-08-07T21:54:13.204Z,102621.53
2022-08-07T21:56:49.431Z,102621.72
2022-08-07T22:00:02.967Z,102628.78
2022-08-07T22:02:27.484Z,102620.66
2022-08-07T22:05:00.259Z,102627.16
2022-08-07T22:07:58.864Z,102628.09
2022-08-07T22:10:22.214Z,102627.34
2022-08-07T22:12:55.518Z,102632.06
2022-08-07T22:16:39.825Z,102628.78
2022-08-07T22:18:25.554Z,102638.88
2022-08-07T22:20:58.003Z,102631.00
2022-08-07T22:23:40.516Z,102645.94
2022-08-07T22:26:17.565Z,102649.50
2022-08-07T22:28:53.164Z,102646.66
2022-08-07T22:31:56.306Z,102649.84
2022-08-07T22:34:28.861Z,102652.53
2022-08-07T22:37:09.337Z,102662.13
2022-08-07T22:39:53.554Z,102648.91
2022-08-07T22:42:26.013Z,102657.28
2022-08-07T22:45:02.174Z,102659.44
2022-08-07T22:48:01.527Z,102658.72
2022-08-07T22:51:03.352Z,102658.19
2022-08-07T22:54:07.080Z,102657.06
2022-08-07T22:56:47.326Z,102643.69
2022-08-07T22:59:38.170Z,102649.09
2022-08-07T23:02:33.085Z,102643.28
2022-08-07T23:08:04.851Z,102639.50
2022-08-07T23:10:45.195Z,102638.50
2022-08-07T23:13:49.229Z,102645.88
2022-08-07T23:16:48.635Z,102651.94
2022-08-07T23:20:00.022Z,102659.16
2022-08-07T23:22:43.084Z,102655.91
2022-08-07T23:25:28.495Z,102647.19
2022-08-07T23:28:28.623Z,102649.34
2022-08-07T23:31:18.553Z,102650.53
2022-08-07T23:34:38.183Z,102650.78
2022-08-07T23:37:32.206Z,102654.47
2022-08-07T23:40:23.038Z,102654.38
2022-08-07T23:43:17.020Z,102655.31
2022-08-07T23:46:03.002Z,102647.72
2022-08-07T23:48:48.079Z,102659.25
2022-08-07T23:52:57.982Z,102655.06
2022-08-07T23:54:19.932Z,102651.88
2022-08-07T23:57:12.557Z,102646.94
